• Join FlightAware (Why Join?)
  • Login
  • US Flag 
11:03AM EDT


 

Airport Tracker/Info


-or-


 

Live Flight TrackerFlight Track Log ✈ SWA2852 ✈ 19-Apr-2013 ✈ KMCO - KROC

Flight Track Log - Related Links

Times and Time Zones

All times are in EDT time to prevent confusion due to time zone crossing. See the SWA2852 flight status page for this flight to view local times or setup timezone preferences in your user account.

Time Position Orientation Groundspeed Altitude Reporting Facility
EDT Latitude Longitude Course Direction KTS MPH feet Rate Location/Type
01:10PM 28.4000 -81.3000 139° Southeast 172 198 700  Level Orlando TRACON
01:11PM 28.3500 -81.2500 139° Southeast 249 287 3,500 2,280 Climbing Orlando TRACON
01:13PM 28.4414 -81.1928 29° Northeast 279 321 8,400 2,580 Climbing Jacksonville Center
01:14PM 28.5169 -81.2269 338° Northwest 273 314 11,000 2,100 Climbing Jacksonville Center
01:15PM 28.6111 -81.2514 347° North 303 349 12,700 1,800 Climbing Jacksonville Center
01:16PM 28.7136 -81.2806 346° North 347 399 14,600 2,280 Climbing Jacksonville Center
01:17PM 28.8206 -81.3119 346° North 379 436 17,300 2,340 Climbing Jacksonville Center
01:18PM 28.9314 -81.3411 347° North 390 449 19,300 1,980 Climbing Jacksonville Center
01:19PM 29.0425 -81.3725 346° North 403 464 21,300 1,740 Climbing Jacksonville Center
01:20PM 29.1575 -81.3992 349° North 412 474 22,800 1,500 Climbing Jacksonville Center
01:21PM 29.2767 -81.4094 356° North 424 488 24,400 1,560 Climbing Jacksonville Center
01:22PM 29.4019 -81.4194 356° North 436 502 26,000 1,440 Climbing Jacksonville Center
01:23PM 29.5378 -81.4317 356° North 441 507 27,300 1,200 Climbing Jacksonville Center
01:24PM 29.6653 -81.4442 355° North 446 513 28,400 1,320 Climbing Jacksonville Center
01:25PM 29.7886 -81.4592 354° North 451 519 30,000 1,260 Climbing Jacksonville Center
01:26PM 29.9161 -81.4692 356° North 445 512 31,000 900 Climbing Jacksonville Center
01:27PM 30.0417 -81.4817 355° North 445 512 31,800 1,020 Climbing Jacksonville Center
01:28PM 30.1628 -81.4919 356° North 445 512 33,100 960 Climbing Jacksonville Center
01:29PM 30.2883 -81.5044 355° North 445 512 33,800 720 Climbing Jacksonville Center
01:30PM 30.4114 -81.5053 360° North 445 512 34,600 540 Climbing Jacksonville Center
01:31PM 30.5364 -81.4936 North 445 512 34,900 180 Climbing Jacksonville Center
01:32PM 30.6575 -81.4872 North 440 506 35,000  Climbing Jacksonville Center
01:33PM 30.7828 -81.4756 North 440 506 35,000  Level Jacksonville Center
01:34PM 30.9078 -81.4664 North 440 506 35,000  Level Jacksonville Center
01:35PM 31.0331 -81.4572 North 445 512 35,000  Level Jacksonville Center
01:36PM 31.1581 -81.4456 North 445 512 35,000 -60 Level Jacksonville Center
01:37PM 31.2853 -81.4317 North 446 513 34,900  Descending Jacksonville Center
01:38PM 31.4064 -81.4150 North 440 506 35,000  Climbing Jacksonville Center
01:39PM 31.5147 -81.4061 North 440 506 35,000  Level Jacksonville Center
01:40PM 31.6503 -81.3892 North 440 506 35,000  Level Jacksonville Center
01:41PM 31.7733 -81.3750 North 440 506 35,000  Level Jacksonville Center
01:42PM 31.8983 -81.3558 North 440 506 35,000  Level Jacksonville Center
01:43PM 32.0108 -81.3442 North 446 513 35,000  Level Jacksonville Center
01:44PM 32.1361 -81.3297 North 446 513 35,000  Level Jacksonville Center
01:45PM 32.2653 -81.3178 North 451 519 35,000 -60 Level Jacksonville Center
01:46PM 32.3925 -81.3008 North 456 525 34,900  Descending Jacksonville Center
01:47PM 32.5300 -81.2861 North 456 525 35,000  Climbing Jacksonville Center
01:48PM 32.6406 -81.2742 North 451 519 35,000  Level Jacksonville Center
01:49PM 32.7636 -81.2572 North 441 507 35,000  Level Jacksonville Center
01:50PM 32.8864 -81.2450 North 441 507 35,000  Level Jacksonville Center
01:51PM 33.0136 -81.2278 North 441 507 35,000  Level Jacksonville Center
01:52PM 33.1428 -81.2131 North 446 513 35,000  Level Jacksonville Center
01:53PM 33.2700 -81.1983 North 452 520 35,000 -60 Level Jacksonville Center
01:54PM 33.4011 -81.1833 North 463 533 34,900 -60 Descending Jacksonville Center
01:56PM 33.5513 -81.1631 North  Level FlightAware Approximate
01:56PM 33.6617 -81.1508 North 468 539 34,900  Level Jacksonville Center
01:57PM 33.7928 -81.1333 North 463 533 35,000  Climbing Jacksonville Center
01:59PM 34.0033 -81.1069 North 470 541 35,000  Level Atlanta Center
02:00PM 34.1303 -81.0903 North 465 535 35,000  Level Atlanta Center
02:01PM 34.2594 -81.0731 North 460 529 35,000  Level Atlanta Center
02:02PM 34.3928 -81.0633 North 470 541 35,000  Level Atlanta Center
02:03PM 34.5278 -81.0408 North 479 551 35,000  Level Atlanta Center
02:04PM 34.6611 -81.0286 North 479 551 35,000  Level Atlanta Center
02:05PM 34.7919 -81.0111 North 478 550 35,000  Level Atlanta Center
02:06PM 34.9231 -80.9939 North 472 543 35,000  Level Atlanta Center
02:07PM 35.0522 -80.9789 North 467 537 35,000  Level Atlanta Center
02:08PM 35.1853 -80.9614 North 467 537 35,000  Level Atlanta Center
02:09PM 35.2994 -80.9442 North 467 537 35,000  Level Atlanta Center
02:10PM 35.4325 -80.9267 North 467 537 35,000  Level Atlanta Center
02:11PM 35.5678 -80.9086 North 483 556 35,000  Level Atlanta Center
02:12PM 35.7197 -80.8900 North 488 562 35,000  Level Atlanta Center
02:13PM 35.8381 -80.8753 North 493 567 35,000  Level Atlanta Center
02:14PM 35.9733 -80.8572 North 487 560 35,000  Level Atlanta Center
02:15PM 36.1064 -80.8417 North 481 554 35,000  Level Atlanta Center
02:16PM 36.2414 -80.8233 North 481 554 35,000  Level Atlanta Center
02:17PM 36.3764 -80.8050 North 481 554 35,000  Level Atlanta Center
02:18PM 36.5075 -80.7894 North 476 548 35,000  Level Atlanta Center
02:19PM 36.7392 -80.7603 North 486 559 35,000  Level Washington Center
02:20PM 36.8756 -80.7433 North 486 559 35,000  Level Washington Center
02:21PM 36.9994 -80.7283 North 492 566 35,000  Level Washington Center
02:22PM 37.1403 -80.7014 North 492 566 35,000  Level Washington Center
02:23PM 37.2778 -80.6556 15° North 498 573 35,000  Level Washington Center
02:24PM 37.4131 -80.6122 14° North 508 585 35,000  Level Washington Center
02:25PM 37.5656 -80.5622 15° North 508 585 35,000  Level Washington Center
02:26PM 37.7050 -80.5161 15° North 508 585 35,000 -480 Level Washington Center
02:27PM 37.8425 -80.4700 15° North 508 585 34,100 -1,020 Descending Washington Center
02:28PM 37.9819 -80.4236 15° North 508 585 33,000 -600 Descending Washington Center
02:29PM 38.1217 -80.3772 15° North 508 585 33,000  Level Washington Center
02:30PM 38.2506 -80.3328 15° North 521 600 33,000  Level Washington Center
02:31PM 38.3922 -80.2833 15° North 521 600 33,000  Level Washington Center
02:32PM 38.5339 -80.2339 15° North 521 600 33,000  Level Washington Center
02:33PM 38.6794 -80.1900 13° North 521 600 33,000 -840 Level Washington Center
02:34PM 38.8211 -80.1403 15° North 521 600 31,400 -1,020 Descending Washington Center
02:35PM 38.9744 -80.0561 23° Northeast 526 605 31,000 -660 Descending Washington Center
02:37PM 39.2019 -79.8519 35° Northeast 540 621 29,600 -1,140 Descending Cleveland Center
02:38PM 39.3056 -79.7569 35° Northeast 540 621 27,800 -1,320 Descending Cleveland Center
02:39PM 39.4319 -79.6719 27° Northeast 518 596 27,000 -420 Descending Cleveland Center
02:40PM 39.5647 -79.6083 20° North 506 582 27,000  Level Cleveland Center
02:41PM 39.6956 -79.5389 22° Northeast 506 582 27,000  Level Cleveland Center
02:42PM 39.8303 -79.4719 21° North 506 582 27,000  Level Cleveland Center
02:43PM 39.9589 -79.4050 22° Northeast 506 582 27,000  Level Cleveland Center
02:44PM 40.0894 -79.3375 22° Northeast 501 577 27,000  Level Cleveland Center
02:45PM 40.2222 -79.2669 22° Northeast 501 577 27,000  Level Cleveland Center
02:46PM 40.3528 -79.1992 22° Northeast 501 577 27,000  Level Cleveland Center
02:47PM 40.4833 -79.1308 22° Northeast 506 582 27,000  Level Cleveland Center
02:48PM 40.6156 -79.0594 22° Northeast 506 582 27,000  Level Cleveland Center
02:49PM 40.7461 -78.9908 22° Northeast 506 582 27,000  Level Cleveland Center
02:50PM 40.8786 -78.9189 22° Northeast 511 588 27,000  Level Cleveland Center
02:51PM 41.0089 -78.8497 22° Northeast 511 588 27,000  Level Cleveland Center
02:52PM 41.1369 -78.7828 21° North 506 582 27,000  Level Cleveland Center
02:53PM 41.2672 -78.7100 23° Northeast 506 582 27,000  Level Cleveland Center
02:54PM 41.4014 -78.6369 22° Northeast 506 582 27,000  Level Cleveland Center
02:55PM 41.5336 -78.5664 22° Northeast 506 582 27,000 -660 Level Cleveland Center
02:56PM 41.6658 -78.4928 23° Northeast 506 582 25,700 -1,500 Descending Cleveland Center
02:57PM 41.7958 -78.4192 23° Northeast 506 582 24,100 -1,680 Descending Cleveland Center
02:58PM 41.9236 -78.3506 22° Northeast 506 582 22,400 -1,740 Descending Cleveland Center
02:59PM 42.0453 -78.2819 23° Northeast 487 560 20,700 -1,980 Descending Cleveland Center
03:00PM 42.1631 -78.2189 22° Northeast 475 547 18,500 -2,520 Descending Cleveland Center
03:01PM 42.2803 -78.1500 23° Northeast 462 532 15,700 -2,700 Descending Cleveland Center
03:02PM 42.3503 -78.1136 21° North 422 486 14,300 -1,920 Descending Cleveland Center
03:02PM 42.3997 -78.0836 24° Northeast 437 503 13,800 -1,500 Descending Cleveland Center
03:03PM 42.4575 -78.0531 21° North 391 450 12,800 -1,800 Descending Cleveland Center
03:03PM 42.5006 -78.0261 25° Northeast 410 472 12,000 -1,740 Descending Cleveland Center
03:04PM 42.5728 -77.9864 22° Northeast 388 447 10,900 -1,620 Descending Cleveland Center
03:04PM 42.5994 -77.9711 23° Northeast 396 456 10,400 -1,680 Descending Cleveland Center
03:05PM 42.6611 -77.9264 28° Northeast 358 412 9,200 -1,620 Descending Cleveland Center
03:05PM 42.6878 -77.9083 26° Northeast 366 421 8,800 -1,680 Descending Cleveland Center
03:06PM 42.7328 -77.8694 32° Northeast 342 394 7,700 -1,800 Descending Cleveland Center
03:06PM 42.7636 -77.8514 23° Northeast 346 398 7,000 -1,200 Descending Cleveland Center
03:07PM 42.8250 -77.8061 28° Northeast 339 390 6,500 -840 Descending Cleveland Center
03:07PM 42.8494 -77.7881 28° Northeast 333 383 6,200 -1,320 Descending Cleveland Center
03:08PM 42.8983 -77.7433 34° Northeast 311 358 5,200 -1,320 Descending Cleveland Center
03:08PM 42.9208 -77.7197 38° Northeast 320 368 4,900 -1,320 Descending Cleveland Center
03:09PM 42.9633 -77.6750 38° Northeast 282 325 3,900 -1,920 Descending Cleveland Center
03:09PM 42.9836 -77.6514 40° Northeast 301 346 3,000 -1,380 Descending Cleveland Center
03:10PM 43.0222 -77.6128 36° Northeast 256 295 2,500 -420 Descending Cleveland Center
03:10PM 43.0406 -77.5919 40° Northeast 272 313 2,600 -360 Climbing Cleveland Center
03:11PM 43.0756 -77.5731 22° Northeast 217 250 2,200 -600 Descending Cleveland Center
03:11PM 43.0961 -77.5664 13° North 234 269 2,000 -300 Descending Cleveland Center
03:12PM 43.1217 -77.5825 335° Northwest 138 159 1,900 -600 Descending Cleveland Center
03:13PM 43.1228 -77.6306 272° West 121 139 1,100 -840 Descending Cleveland Center
03:15PM 43.1167 -77.6667 270° West  Level FlightAware Approximate
03:22PM 43.1191 -77.6719 270° West  Level Estimated